createdAt,value
2019-02-09T00:01:52.265Z,5.80
2019-02-09T00:04:25.007Z,5.80
2019-02-09T00:06:57.597Z,6.20
2019-02-09T00:09:30.319Z,5.00
2019-02-09T00:12:02.790Z,5.00
2019-02-09T00:14:43.666Z,4.40
2019-02-09T00:17:17.280Z,4.00
2019-02-09T00:19:56.181Z,3.80
2019-02-09T00:22:29.205Z,2.40
2019-02-09T00:25:01.790Z,2.20
2019-02-09T00:27:34.556Z,2.40
2019-02-09T00:30:10.380Z,2.60
2019-02-09T00:32:43.478Z,2.00
2019-02-09T00:35:21.211Z,2.00
2019-02-09T00:37:54.784Z,2.00
2019-02-09T00:40:47.396Z,2.20
2019-02-09T00:43:21.863Z,2.80
2019-02-09T00:45:53.862Z,2.60
2019-02-09T00:48:26.377Z,1.80
2019-02-09T00:50:58.858Z,2.00
2019-02-09T00:53:31.433Z,1.00
2019-02-09T00:56:03.975Z,1.60
2019-02-09T00:58:36.448Z,2.00
2019-02-09T01:01:09.145Z,2.60
2019-02-09T01:03:41.963Z,1.80
2019-02-09T01:06:16.102Z,2.00
2019-02-09T01:08:48.761Z,1.40
2019-02-09T01:11:21.349Z,1.80
2019-02-09T01:13:53.776Z,1.80
2019-02-09T01:16:26.487Z,1.00
2019-02-09T01:18:59.123Z,2.00
2019-02-09T01:21:31.558Z,2.00
2019-02-09T01:24:04.443Z,2.60
2019-02-09T01:26:41.554Z,3.80
2019-02-09T01:29:16.510Z,4.40
2019-02-09T01:31:50.346Z,5.60
2019-02-09T01:34:35.270Z,7.60
2019-02-09T01:37:08.010Z,6.20
2019-02-09T01:39:40.655Z,6.20
2019-02-09T01:42:13.381Z,6.00
2019-02-09T01:44:47.844Z,5.80
2019-02-09T01:47:20.385Z,6.40
2019-02-09T01:49:52.950Z,5.00
2019-02-09T01:52:25.475Z,2.40
2019-02-09T01:54:58.082Z,4.40
2019-02-09T01:57:30.544Z,4.00
2019-02-09T02:00:10.420Z,2.40
2019-02-09T02:02:38.298Z,2.40
2019-02-09T02:05:17.723Z,0.60
2019-02-09T02:07:52.143Z,1.00
2019-02-09T02:10:41.358Z,1.00
2019-02-09T02:13:15.591Z,0.00
2019-02-09T02:15:53.101Z,1.00
2019-02-09T02:18:25.636Z,0.20
2019-02-09T02:20:59.256Z,0.40
2019-02-09T02:23:34.607Z,1.00
2019-02-09T02:26:08.057Z,0.40
2019-02-09T02:28:42.704Z,1.00
2019-02-09T02:31:15.912Z,1.00
2019-02-09T02:33:54.593Z,0.00
2019-02-09T02:36:26.973Z,0.00
2019-02-09T02:38:59.769Z,0.20
2019-02-09T02:45:05.747Z,0.40
2019-02-09T02:47:39.789Z,0.60
2019-02-09T02:50:18.516Z,0.00
2019-02-09T02:53:00.345Z,0.00
2019-02-09T02:55:35.171Z,0.80
2019-02-09T02:58:16.966Z,1.00
2019-02-09T03:00:49.560Z,0.00
2019-02-09T03:03:24.734Z,0.00
2019-02-09T03:05:57.232Z,0.40
2019-02-09T03:08:32.753Z,0.00
2019-02-09T03:11:04.947Z,0.00
2019-02-09T03:13:39.288Z,0.00
2019-02-09T03:16:16.455Z,0.00
2019-02-09T03:18:50.049Z,0.00
2019-02-09T03:21:22.755Z,0.00
2019-02-09T03:23:55.333Z,0.00
2019-02-09T03:26:33.095Z,1.00
2019-02-09T03:29:11.522Z,0.00
2019-02-09T03:31:48.779Z,0.00
2019-02-09T03:34:21.012Z,0.00
2019-02-09T03:36:59.889Z,0.00
2019-02-09T03:39:32.569Z,0.00
2019-02-09T03:42:05.407Z,0.00
2019-02-09T03:44:39.843Z,0.00
2019-02-09T03:47:14.568Z,0.00
2019-02-09T03:49:47.721Z,0.00
2019-02-09T03:52:21.468Z,0.60
2019-02-09T03:54:57.014Z,0.00
2019-02-09T03:57:29.126Z,0.00
2019-02-09T04:00:02.437Z,0.00
2019-02-09T04:02:36.492Z,0.40
2019-02-09T04:05:12.321Z,0.00
2019-02-09T04:07:44.904Z,0.00
2019-02-09T04:10:29.796Z,0.00
2019-02-09T04:13:03.272Z,0.00
2019-02-09T04:15:36.817Z,0.00
2019-02-09T04:18:09.599Z,0.00
2019-02-09T04:20:42.060Z,0.20
2019-02-09T04:23:14.596Z,0.00
2019-02-09T04:25:47.213Z,1.00
2019-02-09T04:28:20.058Z,1.00
2019-02-09T04:30:52.577Z,3.00
2019-02-09T04:33:25.084Z,5.80
2019-02-09T04:35:57.292Z,7.20
2019-02-09T04:38:29.669Z,6.40
2019-02-09T04:41:02.183Z,9.00
2019-02-09T04:43:34.481Z,9.40
2019-02-09T04:46:06.806Z,22.80
2019-02-09T04:48:38.992Z,33.50
2019-02-09T04:51:11.307Z,33.50
2019-02-09T04:53:43.503Z,38.50
2019-02-09T04:56:15.714Z,40.50
2019-02-09T04:58:48.254Z,42.50
2019-02-09T05:01:20.567Z,40.50
2019-02-09T05:03:53.056Z,43.00
2019-02-09T05:06:25.492Z,41.75
2019-02-09T05:08:58.071Z,42.50
2019-02-09T05:11:30.591Z,67.25
2019-02-09T05:14:02.868Z,75.75
2019-02-09T05:16:35.106Z,81.75
2019-02-09T05:19:07.659Z,77.50
2019-02-09T05:21:39.893Z,83.00
2019-02-09T05:24:12.523Z,82.50
2019-02-09T05:26:44.748Z,85.25
2019-02-09T05:29:17.186Z,84.75
2019-02-09T05:31:49.501Z,82.25
2019-02-09T05:34:21.707Z,81.50
2019-02-09T05:36:53.954Z,73.50
2019-02-09T05:39:26.157Z,60.50
2019-02-09T05:41:58.599Z,58.50
2019-02-09T05:44:30.888Z,50.00
2019-02-09T05:47:03.201Z,47.25
2019-02-09T05:49:35.494Z,42.50
2019-02-09T05:52:07.791Z,43.75
2019-02-09T05:54:40.043Z,42.25
2019-02-09T05:57:12.264Z,43.75
2019-02-09T05:59:44.861Z,41.50
2019-02-09T06:02:17.172Z,43.00
2019-02-09T06:04:49.359Z,40.00
2019-02-09T06:07:21.731Z,43.50
2019-02-09T06:09:54.062Z,40.75
2019-02-09T06:12:26.363Z,42.25
2019-02-09T06:14:58.670Z,38.25
2019-02-09T06:17:31.402Z,41.75
2019-02-09T06:20:03.689Z,39.75
2019-02-09T06:22:36.012Z,36.75
2019-02-09T06:25:09.193Z,35.00
2019-02-09T06:27:41.610Z,38.25
2019-02-09T06:30:22.039Z,38.25
2019-02-09T06:32:54.576Z,40.50
2019-02-09T06:35:26.850Z,37.50
2019-02-09T06:37:59.595Z,36.00
2019-02-09T06:40:31.909Z,37.25
2019-02-09T06:43:04.293Z,35.75
2019-02-09T06:45:36.723Z,37.50
2019-02-09T06:48:28.694Z,33.50
2019-02-09T06:51:02.073Z,31.50
2019-02-09T06:53:35.619Z,28.75
2019-02-09T06:56:07.886Z,28.25
2019-02-09T06:58:40.113Z,26.25
2019-02-09T07:01:12.365Z,22.40
2019-02-09T07:03:44.783Z,22.60
2019-02-09T07:06:17.337Z,20.40
2019-02-09T07:08:49.874Z,22.00
2019-02-09T07:11:22.186Z,23.00
2019-02-09T07:13:54.704Z,22.60
2019-02-09T07:16:26.918Z,22.60
2019-02-09T07:18:59.153Z,22.80
2019-02-09T07:21:31.456Z,22.80
2019-02-09T07:24:03.769Z,21.60
2019-02-09T07:26:36.147Z,23.00
2019-02-09T07:29:08.511Z,22.00
2019-02-09T07:31:40.988Z,23.20
2019-02-09T07:34:13.214Z,22.60
2019-02-09T07:36:45.514Z,19.00
2019-02-09T07:39:18.048Z,20.20
2019-02-09T07:41:50.262Z,20.20
2019-02-09T07:44:22.476Z,16.80
2019-02-09T07:46:54.673Z,17.20
2019-02-09T07:49:26.914Z,16.40
2019-02-09T07:51:59.431Z,15.00
2019-02-09T07:54:31.627Z,14.00
2019-02-09T07:57:03.818Z,14.40
2019-02-09T07:59:36.515Z,15.20
2019-02-09T08:02:08.738Z,15.20
2019-02-09T08:04:41.008Z,14.20
2019-02-09T08:07:13.403Z,15.00
2019-02-09T08:09:45.977Z,14.20
2019-02-09T08:12:18.633Z,13.60
2019-02-09T08:14:50.845Z,13.00
2019-02-09T08:17:23.642Z,14.20
2019-02-09T08:19:55.867Z,11.20
2019-02-09T08:22:28.606Z,10.20
2019-02-09T08:25:01.542Z,13.60
2019-02-09T08:27:34.147Z,13.60
2019-02-09T08:30:09.035Z,10.80
2019-02-09T08:32:41.516Z,11.00
2019-02-09T08:35:14.038Z,11.60
2019-02-09T08:37:46.442Z,8.60
2019-02-09T08:40:18.934Z,12.00
2019-02-09T08:42:52.418Z,11.00
2019-02-09T08:45:25.241Z,11.60
2019-02-09T08:47:57.635Z,13.40
2019-02-09T08:50:38.024Z,11.00
2019-02-09T08:53:10.297Z,10.00
2019-02-09T08:55:42.726Z,10.20
2019-02-09T08:58:14.923Z,13.40
2019-02-09T09:00:47.467Z,11.00
2019-02-09T09:03:19.668Z,11.00
2019-02-09T09:05:52.104Z,10.60
2019-02-09T09:08:24.401Z,9.20
2019-02-09T09:10:56.885Z,10.80
2019-02-09T09:13:30.176Z,9.40
2019-02-09T09:16:02.600Z,8.60
2019-02-09T09:18:35.012Z,8.60
2019-02-09T09:21:09.368Z,9.40
2019-02-09T09:23:41.591Z,10.40
2019-02-09T09:26:13.909Z,10.00
2019-02-09T09:28:46.598Z,8.60
2019-02-09T09:31:18.801Z,10.40
2019-02-09T09:33:51.192Z,9.80
2019-02-09T09:36:23.688Z,8.80
2019-02-09T09:38:55.867Z,9.40
2019-02-09T09:41:28.570Z,7.60
2019-02-09T09:44:00.776Z,10.00
2019-02-09T09:46:33.100Z,8.00
2019-02-09T09:49:05.704Z,9.00
2019-02-09T09:51:37.917Z,7.60
2019-02-09T09:54:10.389Z,7.60
2019-02-09T09:56:42.643Z,8.00
2019-02-09T09:59:15.285Z,8.00
2019-02-09T10:01:47.597Z,8.80
2019-02-09T10:04:19.986Z,8.00
2019-02-09T10:06:52.600Z,7.80
2019-02-09T10:09:24.981Z,7.20
2019-02-09T10:11:57.596Z,8.00
2019-02-09T10:14:30.033Z,6.20
2019-02-09T10:17:02.518Z,8.00
2019-02-09T10:19:35.093Z,7.60
2019-02-09T10:22:07.573Z,7.80
2019-02-09T10:24:40.041Z,5.40
2019-02-09T10:27:12.440Z,6.40
2019-02-09T10:29:45.108Z,5.80
2019-02-09T10:32:17.591Z,7.20
2019-02-09T10:34:50.338Z,6.40
2019-02-09T10:37:22.808Z,7.00
2019-02-09T10:39:55.737Z,8.00
2019-02-09T10:42:28.404Z,6.40
2019-02-09T10:45:00.749Z,6.40
2019-02-09T10:47:33.632Z,5.20
2019-02-09T10:50:08.476Z,6.20
2019-02-09T10:52:40.916Z,6.40
2019-02-09T10:55:14.049Z,5.20
2019-02-09T10:57:46.538Z,6.80
2019-02-09T11:00:21.754Z,5.80
2019-02-09T11:02:55.850Z,5.40
2019-02-09T11:05:28.937Z,4.80
2019-02-09T11:08:01.424Z,4.80
2019-02-09T11:10:33.978Z,5.40
2019-02-09T11:13:07.417Z,4.80
2019-02-09T11:15:40.145Z,5.60
2019-02-09T11:18:12.663Z,5.00
2019-02-09T11:20:45.130Z,4.60
2019-02-09T11:23:17.623Z,1.80
2019-02-09T11:25:49.978Z,4.40
2019-02-09T11:28:22.521Z,4.40
2019-02-09T11:30:55.726Z,4.40
2019-02-09T11:33:28.733Z,4.80
2019-02-09T11:36:01.660Z,4.80
2019-02-09T11:38:34.226Z,4.40
2019-02-09T11:41:07.181Z,4.20
2019-02-09T11:43:40.149Z,5.00
2019-02-09T11:46:12.520Z,5.00
2019-02-09T11:48:44.945Z,4.00
2019-02-09T11:51:17.515Z,3.20
2019-02-09T11:53:49.978Z,3.60
2019-02-09T11:56:22.695Z,3.60
2019-02-09T11:58:55.061Z,3.80
2019-02-09T12:01:27.420Z,4.00
2019-02-09T12:03:59.806Z,3.40
2019-02-09T12:06:32.160Z,3.00
2019-02-09T12:09:06.025Z,1.80
2019-02-09T12:11:38.388Z,5.00
2019-02-09T12:14:10.973Z,2.20
2019-02-09T12:16:43.561Z,3.80
2019-02-09T12:19:16.331Z,4.00
2019-02-09T12:21:48.718Z,3.40
2019-02-09T12:24:21.138Z,3.40
2019-02-09T12:26:53.725Z,4.00
2019-02-09T12:29:26.454Z,2.80
2019-02-09T12:31:59.330Z,3.20
2019-02-09T12:34:31.726Z,2.20
2019-02-09T12:37:04.503Z,2.60
2019-02-09T12:39:36.917Z,3.20
2019-02-09T12:42:11.318Z,3.20
2019-02-09T12:44:43.769Z,3.00
2019-02-09T12:47:16.333Z,3.00
2019-02-09T12:49:48.749Z,3.00
2019-02-09T12:52:21.130Z,3.00
2019-02-09T12:54:53.526Z,3.00
2019-02-09T12:57:25.906Z,2.80
2019-02-09T12:59:58.618Z,3.00
2019-02-09T13:02:31.092Z,4.00
2019-02-09T13:05:03.612Z,3.40
2019-02-09T13:07:36.003Z,3.00
2019-02-09T13:10:11.070Z,3.00
2019-02-09T13:12:43.722Z,2.00
2019-02-09T13:15:33.617Z,2.00
2019-02-09T13:18:06.972Z,2.60
2019-02-09T13:20:39.485Z,2.20
2019-02-09T13:23:13.223Z,2.60
2019-02-09T13:25:45.637Z,2.40
2019-02-09T13:28:17.993Z,2.00
2019-02-09T13:30:50.725Z,2.00
2019-02-09T13:33:23.099Z,2.20
2019-02-09T13:35:55.470Z,2.80
2019-02-09T13:38:28.014Z,2.00
2019-02-09T13:41:00.723Z,2.00
2019-02-09T13:43:33.310Z,1.00
2019-02-09T13:46:05.961Z,2.00
2019-02-09T13:48:38.635Z,1.40
2019-02-09T13:51:11.116Z,1.80
2019-02-09T13:53:43.603Z,2.00
2019-02-09T13:56:16.194Z,1.00
2019-02-09T13:58:48.674Z,1.80
2019-02-09T14:01:21.058Z,1.00
2019-02-09T14:03:53.448Z,1.20
2019-02-09T14:06:25.898Z,0.80
2019-02-09T14:08:58.263Z,1.00
2019-02-09T14:11:30.678Z,1.00
2019-02-09T14:14:03.164Z,1.00
2019-02-09T14:16:38.751Z,0.00
2019-02-09T14:19:10.592Z,0.00
2019-02-09T14:21:42.997Z,0.20
2019-02-09T14:24:15.413Z,0.00
2019-02-09T14:26:48.014Z,0.00
2019-02-09T14:29:20.685Z,0.00
2019-02-09T14:31:53.236Z,0.00
2019-02-09T14:34:25.597Z,0.00
2019-02-09T14:36:58.398Z,0.00
2019-02-09T14:39:30.732Z,0.00
2019-02-09T14:42:03.366Z,0.00
2019-02-09T14:44:35.684Z,0.00
2019-02-09T14:47:08.522Z,0.00
2019-02-09T14:49:40.976Z,0.00
2019-02-09T14:52:13.715Z,0.00
2019-02-09T14:54:46.182Z,0.00
2019-02-09T14:57:19.004Z,0.00
2019-02-09T14:59:51.889Z,0.00
2019-02-09T15:02:24.616Z,0.00
2019-02-09T15:04:56.993Z,0.00
2019-02-09T15:07:29.369Z,0.00
2019-02-09T15:10:01.716Z,0.00
2019-02-09T15:12:34.625Z,0.00
2019-02-09T15:15:09.465Z,0.00
2019-02-09T15:17:42.024Z,0.00
2019-02-09T15:20:19.758Z,0.00
2019-02-09T15:22:52.175Z,0.00
2019-02-09T15:25:24.668Z,0.00
2019-02-09T15:27:57.141Z,1.00
2019-02-09T15:30:31.199Z,1.00
2019-02-09T15:33:03.880Z,0.00
2019-02-09T15:35:37.391Z,0.00
2019-02-09T15:38:10.247Z,0.40
2019-02-09T15:40:43.102Z,0.00
2019-02-09T15:43:15.802Z,0.00
2019-02-09T15:45:48.245Z,0.00
2019-02-09T15:48:22.326Z,0.00
2019-02-09T15:50:54.906Z,0.00
2019-02-09T15:53:27.298Z,0.00
2019-02-09T15:55:59.877Z,0.00
2019-02-09T15:58:32.264Z,0.00
2019-02-09T16:01:05.015Z,0.00
2019-02-09T16:07:12.076Z,0.00
2019-02-09T16:09:44.785Z,0.00
2019-02-09T16:12:17.322Z,0.00
2019-02-09T16:14:49.826Z,0.00
2019-02-09T16:17:22.861Z,0.00
2019-02-09T16:19:55.893Z,0.00
2019-02-09T16:22:28.277Z,0.00
2019-02-09T16:25:00.676Z,0.00
2019-02-09T16:27:33.143Z,0.00
2019-02-09T16:30:08.216Z,0.00
2019-02-09T16:32:41.317Z,0.00
2019-02-09T16:35:16.406Z,0.00
2019-02-09T16:37:49.036Z,0.00
2019-02-09T16:40:23.938Z,0.00
2019-02-09T16:42:56.666Z,0.00
2019-02-09T16:45:39.586Z,0.00
2019-02-09T16:48:12.946Z,0.00
2019-02-09T16:50:45.925Z,0.00
2019-02-09T16:53:18.390Z,0.00
2019-02-09T16:55:50.794Z,0.00
2019-02-09T16:58:23.365Z,0.00
2019-02-09T17:00:56.037Z,0.00
2019-02-09T17:03:28.380Z,0.00
2019-02-09T17:06:00.854Z,0.00
2019-02-09T17:08:33.054Z,20.40
2019-02-09T17:11:05.618Z,23.80
2019-02-09T17:13:37.804Z,22.00
2019-02-09T17:16:10.122Z,20.00
2019-02-09T17:18:42.820Z,20.00
2019-02-09T17:21:15.320Z,19.80
2019-02-09T17:23:47.508Z,19.80
2019-02-09T17:26:19.734Z,16.60
2019-02-09T17:28:51.921Z,19.00
2019-02-09T17:31:24.655Z,20.00
2019-02-09T17:33:56.848Z,17.60
2019-02-09T17:36:29.240Z,18.40
2019-02-09T17:39:01.447Z,22.20
2019-02-09T17:41:34.995Z,22.20
2019-02-09T17:44:08.616Z,22.80
2019-02-09T17:46:41.105Z,23.40
2019-02-09T17:49:13.442Z,22.00
2019-02-09T17:51:45.847Z,26.40
2019-02-09T17:54:18.156Z,27.20
2019-02-09T17:56:50.359Z,28.75
2019-02-09T17:59:22.558Z,27.60
2019-02-09T18:01:54.817Z,26.20
2019-02-09T18:04:27.006Z,26.60
2019-02-09T18:07:00.574Z,23.40
2019-02-09T18:09:32.821Z,22.00
2019-02-09T18:12:05.425Z,21.40
2019-02-09T18:14:37.698Z,22.00
2019-02-09T18:17:09.995Z,17.60
2019-02-09T18:19:42.196Z,17.00
2019-02-09T18:22:14.861Z,19.00
2019-02-09T18:24:47.036Z,19.60
2019-02-09T18:27:19.245Z,19.00
2019-02-09T18:29:51.559Z,18.80
2019-02-09T18:32:24.145Z,17.00
2019-02-09T18:34:56.775Z,18.40
2019-02-09T18:37:29.243Z,16.40
2019-02-09T18:40:01.704Z,19.00
2019-02-09T18:42:34.228Z,19.00
2019-02-09T18:45:09.306Z,19.80
2019-02-09T18:47:41.506Z,20.00
2019-02-09T18:50:21.668Z,19.60
2019-02-09T18:52:54.291Z,15.80
2019-02-09T18:55:27.769Z,17.60
2019-02-09T18:58:00.309Z,15.20
2019-02-09T19:00:35.117Z,16.20
2019-02-09T19:03:08.935Z,15.60
2019-02-09T19:05:42.228Z,16.80
2019-02-09T19:08:14.860Z,15.20
2019-02-09T19:10:47.147Z,14.40
2019-02-09T19:13:19.653Z,16.40
2019-02-09T19:15:52.036Z,15.40
2019-02-09T19:18:24.370Z,16.20
2019-02-09T19:20:59.105Z,16.00
2019-02-09T19:23:31.858Z,17.00
2019-02-09T19:26:04.093Z,15.00
2019-02-09T19:28:36.404Z,15.40
2019-02-09T19:31:09.731Z,14.20
2019-02-09T19:33:41.942Z,15.20
2019-02-09T19:36:14.140Z,14.20
2019-02-09T19:38:46.386Z,13.00
2019-02-09T19:41:18.576Z,15.20
2019-02-09T19:43:50.896Z,13.20
2019-02-09T19:46:23.544Z,12.00
2019-02-09T19:48:55.749Z,14.20
2019-02-09T19:51:27.997Z,13.20
2019-02-09T19:54:00.382Z,13.60
2019-02-09T19:56:32.581Z,12.60
2019-02-09T19:59:05.687Z,13.60
2019-02-09T20:01:37.849Z,13.40
2019-02-09T20:04:10.063Z,13.20
2019-02-09T20:06:42.260Z,13.00
2019-02-09T20:09:15.075Z,11.20
2019-02-09T20:11:47.260Z,11.00
2019-02-09T20:14:19.562Z,11.40
2019-02-09T20:16:51.769Z,13.00
2019-02-09T20:19:24.001Z,12.40
2019-02-09T20:21:56.189Z,12.40
2019-02-09T20:24:28.550Z,12.80
2019-02-09T20:27:00.878Z,13.00
2019-02-09T20:29:33.188Z,10.80
2019-02-09T20:32:05.602Z,12.00
2019-02-09T20:34:38.193Z,11.20
2019-02-09T20:37:10.587Z,10.40
2019-02-09T20:39:42.904Z,10.40
2019-02-09T20:42:15.234Z,9.20
2019-02-09T20:44:47.733Z,11.40
2019-02-09T20:47:20.385Z,9.80
2019-02-09T20:49:52.690Z,10.20
2019-02-09T20:52:24.992Z,10.60
2019-02-09T20:54:57.380Z,11.20
2019-02-09T20:57:29.559Z,11.60
2019-02-09T21:00:01.772Z,10.60
2019-02-09T21:02:35.258Z,9.80
2019-02-09T21:05:09.284Z,10.20
2019-02-09T21:07:41.549Z,9.60
2019-02-09T21:10:24.638Z,10.00
2019-02-09T21:12:56.917Z,8.80
2019-02-09T21:15:32.494Z,9.20
2019-02-09T21:18:04.893Z,11.20
2019-02-09T21:20:37.609Z,9.40
2019-02-09T21:23:10.087Z,8.80
2019-02-09T21:25:47.477Z,9.80
2019-02-09T21:28:20.259Z,8.40
2019-02-09T21:30:52.572Z,9.40
2019-02-09T21:33:24.737Z,9.60
2019-02-09T21:35:56.966Z,9.20
2019-02-09T21:38:29.150Z,9.60
2019-02-09T21:41:01.357Z,8.60
2019-02-09T21:43:33.863Z,9.20
2019-02-09T21:46:06.553Z,7.40
2019-02-09T21:48:39.384Z,7.80
2019-02-09T21:51:11.867Z,5.60
2019-02-09T21:53:44.251Z,5.80
2019-02-09T21:56:16.937Z,4.00
2019-02-09T21:58:49.482Z,4.00
2019-02-09T22:01:21.991Z,3.00
2019-02-09T22:03:54.546Z,2.80
2019-02-09T22:06:26.927Z,2.20
2019-02-09T22:08:59.298Z,3.40
2019-02-09T22:11:32.243Z,2.40
2019-02-09T22:14:05.008Z,2.00
2019-02-09T22:16:37.881Z,2.00
2019-02-09T22:19:10.252Z,1.60
2019-02-09T22:21:42.835Z,1.60
2019-02-09T22:24:15.348Z,1.00
2019-02-09T22:26:49.014Z,2.40
2019-02-09T22:29:21.629Z,2.00
2019-02-09T22:31:54.010Z,1.00
2019-02-09T22:34:26.428Z,1.00
2019-02-09T22:36:58.882Z,1.20
2019-02-09T22:39:31.561Z,1.00
2019-02-09T22:42:04.069Z,1.00
2019-02-09T22:44:36.414Z,2.00
2019-02-09T22:47:08.908Z,1.00
2019-02-09T22:49:41.630Z,0.00
2019-02-09T22:52:13.986Z,0.80
2019-02-09T22:54:46.356Z,1.00
2019-02-09T22:57:18.922Z,0.80
2019-02-09T22:59:51.281Z,1.00
2019-02-09T23:02:23.667Z,0.40
2019-02-09T23:04:56.440Z,0.20
2019-02-09T23:07:28.811Z,0.60
2019-02-09T23:10:01.487Z,0.80
2019-02-09T23:12:35.102Z,1.00
2019-02-09T23:15:09.633Z,0.80
2019-02-09T23:17:42.318Z,0.80
2019-02-09T23:20:14.768Z,1.00
2019-02-09T23:22:48.150Z,0.80
2019-02-09T23:25:20.496Z,0.40
2019-02-09T23:27:53.174Z,0.40
2019-02-09T23:30:25.937Z,1.00
2019-02-09T23:32:58.343Z,0.60
2019-02-09T23:35:30.694Z,2.60
2019-02-09T23:38:02.894Z,7.20
2019-02-09T23:40:35.193Z,15.00
2019-02-09T23:43:07.528Z,19.00
2019-02-09T23:45:39.839Z,23.00
2019-02-09T23:48:12.075Z,27.20
2019-02-09T23:50:44.816Z,28.20
2019-02-09T23:53:17.144Z,26.80
2019-02-09T23:55:49.337Z,25.20
2019-02-09T23:58:21.752Z,27.20
